sensor_id;sensor_type;location;lat;lon;timestamp;P1;durP1;ratioP1;P2;durP2;ratioP2
61675;SDS011;47574;52.090;5.244;2023-06-19T00:01:49;7.0;;;6.3;;
61675;SDS011;47574;52.090;5.244;2023-06-19T00:03:25;7.0;;;6.3;;
61675;SDS011;47574;52.090;5.244;2023-06-19T00:05:01;7.7;;;7.0;;
61675;SDS011;47574;52.090;5.244;2023-06-19T00:08:15;7.7;;;6.7;;
61675;SDS011;47574;52.090;5.244;2023-06-19T00:09:52;8.5;;;6.6;;
61675;SDS011;47574;52.090;5.244;2023-06-19T00:11:28;8.31;;;6.7;;
61675;SDS011;47574;52.090;5.244;2023-06-19T00:14:41;8.1;;;7.3;;
61675;SDS011;47574;52.090;5.244;2023-06-19T00:16:19;7.9;;;6.6;;
61675;SDS011;47574;52.090;5.244;2023-06-19T00:17:56;9.81;;;7.5;;
61675;SDS011;47574;52.090;5.244;2023-06-19T00:19:33;10.0;;;7.0;;
61675;SDS011;47574;52.090;5.244;2023-06-19T00:22:46;8.1;;;7.3;;
61675;SDS011;47574;52.090;5.244;2023-06-19T00:24:22;8.0;;;6.9;;
61675;SDS011;47574;52.090;5.244;2023-06-19T00:25:58;10.6;;;7.5;;
61675;SDS011;47574;52.090;5.244;2023-06-19T00:29:12;11.5;;;7.7;;
61675;SDS011;47574;52.090;5.244;2023-06-19T00:30:48;10.9;;;7.9;;
61675;SDS011;47574;52.090;5.244;2023-06-19T00:32:24;9.21;;;7.2;;
61675;SDS011;47574;52.090;5.244;2023-06-19T00:35:37;8.9;;;7.3;;
61675;SDS011;47574;52.090;5.244;2023-06-19T00:37:13;7.7;;;7.0;;
61675;SDS011;47574;52.090;5.244;2023-06-19T00:38:49;10.6;;;7.0;;
61675;SDS011;47574;52.090;5.244;2023-06-19T00:40:26;9.21;;;6.8;;
61675;SDS011;47574;52.090;5.244;2023-06-19T00:43:41;6.9;;;6.3;;
61675;SDS011;47574;52.090;5.244;2023-06-19T00:45:18;8.9;;;6.7;;
61675;SDS011;47574;52.090;5.244;2023-06-19T00:46:57;9.6;;;6.6;;
61675;SDS011;47574;52.090;5.244;2023-06-19T00:50:11;7.8;;;6.1;;
61675;SDS011;47574;52.090;5.244;2023-06-19T00:51:48;6.8;;;5.6;;
61675;SDS011;47574;52.090;5.244;2023-06-19T00:53:28;5.5;;;5.0;;
61675;SDS011;47574;52.090;5.244;2023-06-19T00:55:08;6.3;;;4.3;;
61675;SDS011;47574;52.090;5.244;2023-06-19T00:58:21;5.3;;;4.1;;
61675;SDS011;47574;52.090;5.244;2023-06-19T00:59:58;5.3;;;3.8;;
61675;SDS011;47574;52.090;5.244;2023-06-19T01:01:34;7.9;;;3.4;;
61675;SDS011;47574;52.090;5.244;2023-06-19T01:04:49;3.5;;;3.1;;
61675;SDS011;47574;52.090;5.244;2023-06-19T01:06:27;3.0;;;2.8;;
61675;SDS011;47574;52.090;5.244;2023-06-19T01:08:22;5.2;;;2.8;;
61675;SDS011;47574;52.090;5.244;2023-06-19T01:10:27;3.0;;;2.7;;
61675;SDS011;47574;52.090;5.244;2023-06-19T01:12:08;2.8;;;2.6;;
61675;SDS011;47574;52.090;5.244;2023-06-19T01:13:55;2.7;;;2.5;;
61675;SDS011;47574;52.090;5.244;2023-06-19T01:17:14;4.8;;;2.6;;
61675;SDS011;47574;52.090;5.244;2023-06-19T01:18:51;5.11;;;2.6;;
61675;SDS011;47574;52.090;5.244;2023-06-19T01:20:29;3.7;;;2.5;;
61675;SDS011;47574;52.090;5.244;2023-06-19T01:23:42;3.4;;;2.6;;
61675;SDS011;47574;52.090;5.244;2023-06-19T01:25:19;2.31;;;2.21;;
61675;SDS011;47574;52.090;5.244;2023-06-19T01:26:56;3.9;;;2.5;;
61675;SDS011;47574;52.090;5.244;2023-06-19T01:28:33;3.3;;;1.9;;
61675;SDS011;47574;52.090;5.244;2023-06-19T01:31:50;4.3;;;2.1;;
61675;SDS011;47574;52.090;5.244;2023-06-19T01:33:34;3.5;;;2.31;;
61675;SDS011;47574;52.090;5.244;2023-06-19T01:35:15;5.3;;;1.9;;
61675;SDS011;47574;52.090;5.244;2023-06-19T01:36:57;5.3;;;1.9;;
61675;SDS011;47574;52.090;5.244;2023-06-19T01:40:13;3.6;;;2.1;;
61675;SDS011;47574;52.090;5.244;2023-06-19T01:41:51;6.0;;;1.9;;
61675;SDS011;47574;52.090;5.244;2023-06-19T01:43:30;2.1;;;2.0;;
61675;SDS011;47574;52.090;5.244;2023-06-19T01:46:46;1.8;;;1.7;;
61675;SDS011;47574;52.090;5.244;2023-06-19T01:48:24;2.8;;;1.8;;
61675;SDS011;47574;52.090;5.244;2023-06-19T01:50:01;2.1;;;1.9;;
61675;SDS011;47574;52.090;5.244;2023-06-19T01:51:38;2.9;;;1.6;;
61675;SDS011;47574;52.090;5.244;2023-06-19T01:54:52;2.5;;;1.8;;
61675;SDS011;47574;52.090;5.244;2023-06-19T01:56:28;2.0;;;1.8;;
61675;SDS011;47574;52.090;5.244;2023-06-19T01:58:05;4.2;;;2.1;;
61675;SDS011;47574;52.090;5.244;2023-06-19T02:01:18;3.0;;;1.9;;
61675;SDS011;47574;52.090;5.244;2023-06-19T02:02:56;3.6;;;2.0;;
61675;SDS011;47574;52.090;5.244;2023-06-19T02:04:32;2.6;;;2.4;;
61675;SDS011;47574;52.090;5.244;2023-06-19T02:07:45;3.0;;;2.6;;
61675;SDS011;47574;52.090;5.244;2023-06-19T02:09:21;2.6;;;2.4;;
61675;SDS011;47574;52.090;5.244;2023-06-19T02:10:57;2.4;;;2.21;;
61675;SDS011;47574;52.090;5.244;2023-06-19T02:12:33;2.9;;;2.6;;
61675;SDS011;47574;52.090;5.244;2023-06-19T02:15:46;3.9;;;2.31;;
61675;SDS011;47574;52.090;5.244;2023-06-19T02:17:22;2.7;;;2.5;;
61675;SDS011;47574;52.090;5.244;2023-06-19T02:18:58;4.3;;;2.5;;
61675;SDS011;47574;52.090;5.244;2023-06-19T02:22:11;4.41;;;2.8;;
61675;SDS011;47574;52.090;5.244;2023-06-19T02:23:48;2.9;;;2.7;;
61675;SDS011;47574;52.090;5.244;2023-06-19T02:25:24;6.1;;;2.7;;
61675;SDS011;47574;52.090;5.244;2023-06-19T02:28:36;3.8;;;2.8;;
61675;SDS011;47574;52.090;5.244;2023-06-19T02:30:13;4.7;;;2.9;;
61675;SDS011;47574;52.090;5.244;2023-06-19T02:31:50;3.3;;;3.0;;
61675;SDS011;47574;52.090;5.244;2023-06-19T02:33:27;3.5;;;2.9;;
61675;SDS011;47574;52.090;5.244;2023-06-19T02:36:44;3.8;;;2.9;;
61675;SDS011;47574;52.090;5.244;2023-06-19T02:38:20;4.3;;;3.2;;
61675;SDS011;47574;52.090;5.244;2023-06-19T02:39:57;3.0;;;2.8;;
61675;SDS011;47574;52.090;5.244;2023-06-19T02:43:10;5.4;;;3.1;;
61675;SDS011;47574;52.090;5.244;2023-06-19T02:44:46;3.4;;;3.1;;
61675;SDS011;47574;52.090;5.244;2023-06-19T02:46:22;5.4;;;3.4;;
61675;SDS011;47574;52.090;5.244;2023-06-19T02:49:35;3.2;;;3.0;;
61675;SDS011;47574;52.090;5.244;2023-06-19T02:51:11;3.6;;;3.3;;
61675;SDS011;47574;52.090;5.244;2023-06-19T02:52:48;3.0;;;2.8;;
61675;SDS011;47574;52.090;5.244;2023-06-19T02:54:24;4.2;;;3.2;;
61675;SDS011;47574;52.090;5.244;2023-06-19T02:57:38;5.3;;;3.0;;
61675;SDS011;47574;52.090;5.244;2023-06-19T02:59:14;3.6;;;3.4;;
61675;SDS011;47574;52.090;5.244;2023-06-19T03:00:50;3.3;;;3.0;;
61675;SDS011;47574;52.090;5.244;2023-06-19T03:04:03;4.41;;;4.0;;
61675;SDS011;47574;52.090;5.244;2023-06-19T03:05:39;4.41;;;3.7;;
61675;SDS011;47574;52.090;5.244;2023-06-19T03:07:16;4.2;;;3.8;;
61675;SDS011;47574;52.090;5.244;2023-06-19T03:10:28;3.7;;;3.4;;
61675;SDS011;47574;52.090;5.244;2023-06-19T03:12:06;4.3;;;4.0;;
61675;SDS011;47574;52.090;5.244;2023-06-19T03:13:44;4.1;;;3.5;;
61675;SDS011;47574;52.090;5.244;2023-06-19T03:15:24;4.91;;;4.3;;
61675;SDS011;47574;52.090;5.244;2023-06-19T03:18:36;4.3;;;3.9;;
61675;SDS011;47574;52.090;5.244;2023-06-19T03:20:12;4.5;;;4.0;;
61675;SDS011;47574;52.090;5.244;2023-06-19T03:21:48;4.7;;;4.2;;
61675;SDS011;47574;52.090;5.244;2023-06-19T03:25:01;4.41;;;4.1;;
61675;SDS011;47574;52.090;5.244;2023-06-19T03:26:37;4.7;;;4.2;;
61675;SDS011;47574;52.090;5.244;2023-06-19T03:28:13;4.2;;;3.9;;
61675;SDS011;47574;52.090;5.244;2023-06-19T03:31:25;4.8;;;4.41;;
61675;SDS011;47574;52.090;5.244;2023-06-19T03:33:02;5.7;;;4.5;;
61675;SDS011;47574;52.090;5.244;2023-06-19T03:34:38;4.8;;;4.3;;
61675;SDS011;47574;52.090;5.244;2023-06-19T03:36:14;5.0;;;4.5;;
61675;SDS011;47574;52.090;5.244;2023-06-19T03:39:26;5.3;;;4.61;;
61675;SDS011;47574;52.090;5.244;2023-06-19T03:41:03;8.81;;;5.8;;
61675;SDS011;47574;52.090;5.244;2023-06-19T03:42:41;6.6;;;5.9;;
61675;SDS011;47574;52.090;5.244;2023-06-19T03:45:53;5.7;;;5.3;;
61675;SDS011;47574;52.090;5.244;2023-06-19T03:47:30;7.8;;;7.0;;
61675;SDS011;47574;52.090;5.244;2023-06-19T03:49:06;6.7;;;6.1;;
61675;SDS011;47574;52.090;5.244;2023-06-19T03:52:19;7.9;;;7.1;;
61675;SDS011;47574;52.090;5.244;2023-06-19T03:53:57;9.1;;;8.2;;
61675;SDS011;47574;52.090;5.244;2023-06-19T03:55:34;11.0;;;9.81;;
61675;SDS011;47574;52.090;5.244;2023-06-19T03:57:11;11.2;;;10.1;;
61675;SDS011;47574;52.090;5.244;2023-06-19T04:00:23;11.8;;;10.7;;
61675;SDS011;47574;52.090;5.244;2023-06-19T04:02:00;12.0;;;10.0;;
61675;SDS011;47574;52.090;5.244;2023-06-19T04:03:37;12.6;;;10.5;;
61675;SDS011;47574;52.090;5.244;2023-06-19T04:06:50;12.8;;;11.5;;
61675;SDS011;47574;52.090;5.244;2023-06-19T04:08:26;13.2;;;11.8;;
61675;SDS011;47574;52.090;5.244;2023-06-19T04:10:03;12.9;;;11.5;;
61675;SDS011;47574;52.090;5.244;2023-06-19T04:13:16;14.5;;;12.2;;
61675;SDS011;47574;52.090;5.244;2023-06-19T04:14:52;13.0;;;11.7;;
61675;SDS011;47574;52.090;5.244;2023-06-19T04:16:29;13.0;;;11.2;;
61675;SDS011;47574;52.090;5.244;2023-06-19T04:18:06;13.5;;;11.0;;
61675;SDS011;47574;52.090;5.244;2023-06-19T04:21:19;11.7;;;10.5;;
61675;SDS011;47574;52.090;5.244;2023-06-19T04:22:56;12.9;;;10.8;;
61675;SDS011;47574;52.090;5.244;2023-06-19T04:24:33;17.2;;;13.7;;
61675;SDS011;47574;52.090;5.244;2023-06-19T04:27:47;14.3;;;12.8;;
61675;SDS011;47574;52.090;5.244;2023-06-19T04:29:23;14.8;;;13.3;;
61675;SDS011;47574;52.090;5.244;2023-06-19T04:30:59;14.6;;;13.1;;
61675;SDS011;47574;52.090;5.244;2023-06-19T04:34:12;13.3;;;12.0;;
61675;SDS011;47574;52.090;5.244;2023-06-19T04:35:52;13.3;;;11.9;;
61675;SDS011;47574;52.090;5.244;2023-06-19T04:37:28;12.6;;;10.9;;
61675;SDS011;47574;52.090;5.244;2023-06-19T04:39:05;12.3;;;11.0;;
61675;SDS011;47574;52.090;5.244;2023-06-19T04:42:19;12.9;;;8.9;;
61675;SDS011;47574;52.090;5.244;2023-06-19T04:45:34;8.4;;;6.8;;
61675;SDS011;47574;52.090;5.244;2023-06-19T04:48:49;7.2;;;6.0;;
61675;SDS011;47574;52.090;5.244;2023-06-19T04:50:26;5.2;;;4.7;;
61675;SDS011;47574;52.090;5.244;2023-06-19T04:52:03;5.11;;;4.61;;
61675;SDS011;47574;52.090;5.244;2023-06-19T04:53:40;4.0;;;3.1;;
61675;SDS011;47574;52.090;5.244;2023-06-19T04:56:52;3.3;;;3.1;;
61675;SDS011;47574;52.090;5.244;2023-06-19T04:58:28;2.6;;;2.4;;
61675;SDS011;47574;52.090;5.244;2023-06-19T05:00:05;2.31;;;2.1;;
61675;SDS011;47574;52.090;5.244;2023-06-19T05:03:20;2.1;;;1.9;;
61675;SDS011;47574;52.090;5.244;2023-06-19T05:04:57;3.1;;;2.0;;
61675;SDS011;47574;52.090;5.244;2023-06-19T05:06:34;2.0;;;1.9;;
61675;SDS011;47574;52.090;5.244;2023-06-19T05:09:48;3.4;;;2.5;;
61675;SDS011;47574;52.090;5.244;2023-06-19T05:11:26;2.4;;;2.21;;
61675;SDS011;47574;52.090;5.244;2023-06-19T05:13:03;2.21;;;1.8;;
61675;SDS011;47574;52.090;5.244;2023-06-19T05:14:39;2.1;;;1.9;;
61675;SDS011;47574;52.090;5.244;2023-06-19T05:17:53;2.4;;;1.8;;
61675;SDS011;47574;52.090;5.244;2023-06-19T05:19:30;2.0;;;1.8;;
61675;SDS011;47574;52.090;5.244;2023-06-19T05:21:07;2.31;;;2.1;;
61675;SDS011;47574;52.090;5.244;2023-06-19T05:24:21;1.8;;;1.7;;
61675;SDS011;47574;52.090;5.244;2023-06-19T05:25:58;2.8;;;1.8;;
61675;SDS011;47574;52.090;5.244;2023-06-19T05:27:35;2.7;;;2.5;;
61675;SDS011;47574;52.090;5.244;2023-06-19T05:29:13;2.8;;;2.6;;
61675;SDS011;47574;52.090;5.244;2023-06-19T05:32:25;2.9;;;2.6;;
61675;SDS011;47574;52.090;5.244;2023-06-19T05:34:01;3.2;;;2.9;;
61675;SDS011;47574;52.090;5.244;2023-06-19T05:35:37;3.6;;;3.3;;
61675;SDS011;47574;52.090;5.244;2023-06-19T05:38:52;3.9;;;3.4;;
61675;SDS011;47574;52.090;5.244;2023-06-19T05:40:29;4.2;;;3.6;;
61675;SDS011;47574;52.090;5.244;2023-06-19T05:42:06;5.3;;;4.61;;
61675;SDS011;47574;52.090;5.244;2023-06-19T05:45:19;5.8;;;5.3;;
61675;SDS011;47574;52.090;5.244;2023-06-19T05:46:55;5.7;;;5.11;;
61675;SDS011;47574;52.090;5.244;2023-06-19T05:48:32;6.2;;;5.6;;
61675;SDS011;47574;52.090;5.244;2023-06-19T05:50:09;6.3;;;5.8;;
61675;SDS011;47574;52.090;5.244;2023-06-19T05:53:22;6.6;;;6.0;;
61675;SDS011;47574;52.090;5.244;2023-06-19T05:54:58;7.1;;;6.4;;
61675;SDS011;47574;52.090;5.244;2023-06-19T05:56:35;6.8;;;6.1;;
61675;SDS011;47574;52.090;5.244;2023-06-19T05:59:50;9.0;;;7.3;;
61675;SDS011;47574;52.090;5.244;2023-06-19T06:01:26;6.6;;;5.7;;
61675;SDS011;47574;52.090;5.244;2023-06-19T06:03:04;6.4;;;5.8;;
61675;SDS011;47574;52.090;5.244;2023-06-19T06:06:17;7.3;;;6.6;;
61675;SDS011;47574;52.090;5.244;2023-06-19T06:07:54;6.6;;;6.1;;
61675;SDS011;47574;52.090;5.244;2023-06-19T06:09:31;6.3;;;5.7;;
61675;SDS011;47574;52.090;5.244;2023-06-19T06:11:09;6.8;;;6.1;;
61675;SDS011;47574;52.090;5.244;2023-06-19T06:14:24;5.7;;;5.2;;
61675;SDS011;47574;52.090;5.244;2023-06-19T06:16:01;6.0;;;5.4;;
61675;SDS011;47574;52.090;5.244;2023-06-19T06:17:37;5.6;;;5.11;;
61675;SDS011;47574;52.090;5.244;2023-06-19T06:20:52;5.5;;;5.11;;
61675;SDS011;47574;52.090;5.244;2023-06-19T06:22:29;5.9;;;5.0;;
61675;SDS011;47574;52.090;5.244;2023-06-19T06:24:06;5.4;;;4.91;;
61675;SDS011;47574;52.090;5.244;2023-06-19T06:25:43;6.7;;;6.0;;
61675;SDS011;47574;52.090;5.244;2023-06-19T06:28:56;7.3;;;5.8;;
61675;SDS011;47574;52.090;5.244;2023-06-19T06:30:33;6.7;;;6.1;;
61675;SDS011;47574;52.090;5.244;2023-06-19T06:32:10;7.5;;;6.5;;
61675;SDS011;47574;52.090;5.244;2023-06-19T06:35:25;7.4;;;6.1;;
61675;SDS011;47574;52.090;5.244;2023-06-19T06:37:02;7.3;;;6.6;;
61675;SDS011;47574;52.090;5.244;2023-06-19T06:38:39;7.6;;;6.6;;
61675;SDS011;47574;52.090;5.244;2023-06-19T06:41:54;7.6;;;6.6;;
61675;SDS011;47574;52.090;5.244;2023-06-19T06:43:31;7.9;;;7.1;;
61675;SDS011;47574;52.090;5.244;2023-06-19T06:45:08;9.31;;;7.8;;
61675;SDS011;47574;52.090;5.244;2023-06-19T06:46:46;9.31;;;7.9;;
61675;SDS011;47574;52.090;5.244;2023-06-19T06:49:59;8.71;;;7.8;;
61675;SDS011;47574;52.090;5.244;2023-06-19T06:51:36;10.6;;;8.31;;
61675;SDS011;47574;52.090;5.244;2023-06-19T06:53:14;9.81;;;8.4;;
61675;SDS011;47574;52.090;5.244;2023-06-19T06:56:27;10.8;;;9.71;;
61675;SDS011;47574;52.090;5.244;2023-06-19T06:58:04;10.8;;;9.71;;
61675;SDS011;47574;52.090;5.244;2023-06-19T06:59:41;13.0;;;10.5;;
61675;SDS011;47574;52.090;5.244;2023-06-19T07:01:18;16.0;;;11.9;;
61675;SDS011;47574;52.090;5.244;2023-06-19T07:04:31;13.1;;;10.4;;
61675;SDS011;47574;52.090;5.244;2023-06-19T07:06:08;11.8;;;10.6;;
61675;SDS011;47574;52.090;5.244;2023-06-19T07:07:44;12.8;;;11.0;;
61675;SDS011;47574;52.090;5.244;2023-06-19T07:10:58;14.2;;;11.9;;
61675;SDS011;47574;52.090;5.244;2023-06-19T07:12:35;14.8;;;12.0;;
61675;SDS011;47574;52.090;5.244;2023-06-19T07:14:19;13.6;;;11.3;;
61675;SDS011;47574;52.090;5.244;2023-06-19T07:15:56;15.5;;;11.8;;
61675;SDS011;47574;52.090;5.244;2023-06-19T07:19:09;15.2;;;12.3;;
61675;SDS011;47574;52.090;5.244;2023-06-19T07:20:46;15.6;;;12.4;;
61675;SDS011;47574;52.090;5.244;2023-06-19T07:22:23;17.0;;;11.9;;
61675;SDS011;47574;52.090;5.244;2023-06-19T07:25:37;14.8;;;10.7;;
61675;SDS011;47574;52.090;5.244;2023-06-19T07:27:14;13.9;;;10.5;;
61675;SDS011;47574;52.090;5.244;2023-06-19T07:28:51;12.7;;;10.21;;
61675;SDS011;47574;52.090;5.244;2023-06-19T07:32:05;13.1;;;11.0;;
61675;SDS011;47574;52.090;5.244;2023-06-19T07:33:43;13.8;;;11.1;;
61675;SDS011;47574;52.090;5.244;2023-06-19T07:35:19;13.0;;;11.6;;
61675;SDS011;47574;52.090;5.244;2023-06-19T07:36:55;12.6;;;11.3;;
61675;SDS011;47574;52.090;5.244;2023-06-19T07:40:09;12.3;;;10.5;;
61675;SDS011;47574;52.090;5.244;2023-06-19T07:41:46;14.1;;;10.21;;
61675;SDS011;47574;52.090;5.244;2023-06-19T07:43:23;12.0;;;10.21;;
61675;SDS011;47574;52.090;5.244;2023-06-19T07:46:37;14.2;;;12.4;;
61675;SDS011;47574;52.090;5.244;2023-06-19T07:48:14;15.3;;;13.0;;
61675;SDS011;47574;52.090;5.244;2023-06-19T07:49:51;17.41;;;14.3;;
61675;SDS011;47574;52.090;5.244;2023-06-19T07:51:28;18.41;;;14.7;;
61675;SDS011;47574;52.090;5.244;2023-06-19T07:54:50;19.41;;;15.1;;
61675;SDS011;47574;52.090;5.244;2023-06-19T07:56:33;17.8;;;15.9;;
61675;SDS011;47574;52.090;5.244;2023-06-19T07:58:10;19.5;;;15.8;;
61675;SDS011;47574;52.090;5.244;2023-06-19T07:59:48;18.7;;;15.9;;
61675;SDS011;47574;52.090;5.244;2023-06-19T08:03:03;17.41;;;14.9;;
61675;SDS011;47574;52.090;5.244;2023-06-19T08:04:40;17.7;;;14.3;;
61675;SDS011;47574;52.090;5.244;2023-06-19T08:06:17;18.61;;;15.3;;
61675;SDS011;47574;52.090;5.244;2023-06-19T08:09:31;17.8;;;14.8;;
61675;SDS011;47574;52.090;5.244;2023-06-19T08:11:07;18.8;;;15.8;;
61675;SDS011;47574;52.090;5.244;2023-06-19T08:12:44;18.2;;;15.6;;
61675;SDS011;47574;52.090;5.244;2023-06-19T08:15:57;18.11;;;15.5;;
61675;SDS011;47574;52.090;5.244;2023-06-19T08:17:33;18.11;;;15.8;;
61675;SDS011;47574;52.090;5.244;2023-06-19T08:19:09;19.41;;;16.61;;
61675;SDS011;47574;52.090;5.244;2023-06-19T08:20:45;22.2;;;16.0;;
61675;SDS011;47574;52.090;5.244;2023-06-19T08:23:58;22.3;;;16.61;;
61675;SDS011;47574;52.090;5.244;2023-06-19T08:25:34;21.2;;;16.11;;
61675;SDS011;47574;52.090;5.244;2023-06-19T08:27:10;21.9;;;16.2;;
61675;SDS011;47574;52.090;5.244;2023-06-19T08:30:22;20.3;;;17.0;;
61675;SDS011;47574;52.090;5.244;2023-06-19T08:31:59;19.7;;;16.2;;
61675;SDS011;47574;52.090;5.244;2023-06-19T08:33:35;19.5;;;17.11;;
61675;SDS011;47574;52.090;5.244;2023-06-19T08:36:47;22.8;;;17.61;;
61675;SDS011;47574;52.090;5.244;2023-06-19T08:38:23;23.9;;;17.8;;
61675;SDS011;47574;52.090;5.244;2023-06-19T08:39:59;21.4;;;17.5;;
61675;SDS011;47574;52.090;5.244;2023-06-19T08:41:36;22.1;;;17.3;;
61675;SDS011;47574;52.090;5.244;2023-06-19T08:44:49;22.5;;;18.2;;
61675;SDS011;47574;52.090;5.244;2023-06-19T08:46:26;20.3;;;17.5;;
61675;SDS011;47574;52.090;5.244;2023-06-19T08:48:03;22.6;;;17.8;;
61675;SDS011;47574;52.090;5.244;2023-06-19T08:51:16;22.2;;;17.5;;
61675;SDS011;47574;52.090;5.244;2023-06-19T08:52:52;22.6;;;17.3;;
61675;SDS011;47574;52.090;5.244;2023-06-19T08:54:28;22.7;;;16.4;;
61675;SDS011;47574;52.090;5.244;2023-06-19T08:57:40;20.5;;;17.41;;
61675;SDS011;47574;52.090;5.244;2023-06-19T08:59:17;22.5;;;17.41;;
61675;SDS011;47574;52.090;5.244;2023-06-19T09:00:53;25.8;;;18.3;;
61675;SDS011;47574;52.090;5.244;2023-06-19T09:04:16;20.11;;;17.41;;
61675;SDS011;47574;52.090;5.244;2023-06-19T09:05:52;20.9;;;17.8;;
61675;SDS011;47574;52.090;5.244;2023-06-19T09:07:28;22.6;;;18.61;;
61675;SDS011;47574;52.090;5.244;2023-06-19T09:09:04;25.0;;;19.7;;
61675;SDS011;47574;52.090;5.244;2023-06-19T09:12:17;25.2;;;19.61;;
61675;SDS011;47574;52.090;5.244;2023-06-19T09:13:55;25.1;;;18.7;;
61675;SDS011;47574;52.090;5.244;2023-06-19T09:15:33;22.0;;;18.8;;
61675;SDS011;47574;52.090;5.244;2023-06-19T09:17:11;23.7;;;19.5;;
61675;SDS011;47574;52.090;5.244;2023-06-19T09:20:26;23.8;;;19.61;;
61675;SDS011;47574;52.090;5.244;2023-06-19T09:22:03;23.1;;;18.41;;
61675;SDS011;47574;52.090;5.244;2023-06-19T09:23:41;24.3;;;19.41;;
61675;SDS011;47574;52.090;5.244;2023-06-19T09:26:53;21.2;;;17.61;;
61675;SDS011;47574;52.090;5.244;2023-06-19T09:28:41;21.7;;;18.7;;
61675;SDS011;47574;52.090;5.244;2023-06-19T09:30:17;23.4;;;18.41;;
61675;SDS011;47574;52.090;5.244;2023-06-19T09:31:53;21.8;;;18.3;;
61675;SDS011;47574;52.090;5.244;2023-06-19T09:35:08;23.3;;;17.7;;
61675;SDS011;47574;52.090;5.244;2023-06-19T09:36:44;24.3;;;18.11;;
61675;SDS011;47574;52.090;5.244;2023-06-19T09:38:24;23.9;;;18.7;;
61675;SDS011;47574;52.090;5.244;2023-06-19T09:41:39;22.0;;;18.3;;
61675;SDS011;47574;52.090;5.244;2023-06-19T09:43:19;20.5;;;17.5;;
61675;SDS011;47574;52.090;5.244;2023-06-19T09:45:00;23.6;;;17.11;;
61675;SDS011;47574;52.090;5.244;2023-06-19T09:46:38;22.2;;;16.9;;
61675;SDS011;47574;52.090;5.244;2023-06-19T09:50:07;20.8;;;18.3;;
61675;SDS011;47574;52.090;5.244;2023-06-19T09:51:47;21.4;;;16.9;;
61675;SDS011;47574;52.090;5.244;2023-06-19T09:53:25;18.5;;;16.5;;
61675;SDS011;47574;52.090;5.244;2023-06-19T09:55:02;21.7;;;17.3;;
61675;SDS011;47574;52.090;5.244;2023-06-19T09:58:16;19.2;;;16.11;;
61675;SDS011;47574;52.090;5.244;2023-06-19T09:59:55;20.6;;;16.2;;
61675;SDS011;47574;52.090;5.244;2023-06-19T10:01:33;17.2;;;14.8;;
61675;SDS011;47574;52.090;5.244;2023-06-19T10:04:49;20.2;;;15.5;;
61675;SDS011;47574;52.090;5.244;2023-06-19T10:06:27;20.7;;;15.9;;
61675;SDS011;47574;52.090;5.244;2023-06-19T10:08:03;19.41;;;16.7;;
61675;SDS011;47574;52.090;5.244;2023-06-19T10:09:39;19.7;;;15.6;;
61675;SDS011;47574;52.090;5.244;2023-06-19T10:12:53;19.61;;;16.7;;
61675;SDS011;47574;52.090;5.244;2023-06-19T10:14:30;22.6;;;16.5;;
61675;SDS011;47574;52.090;5.244;2023-06-19T10:16:07;20.8;;;15.7;;
61675;SDS011;47574;52.090;5.244;2023-06-19T10:18:00;19.8;;;15.3;;
61675;SDS011;47574;52.090;5.244;2023-06-19T10:21:15;21.0;;;18.0;;
61675;SDS011;47574;52.090;5.244;2023-06-19T10:22:55;21.0;;;18.0;;
61675;SDS011;47574;52.090;5.244;2023-06-19T10:24:33;19.91;;;17.41;;
61675;SDS011;47574;52.090;5.244;2023-06-19T10:27:51;21.2;;;18.7;;
61675;SDS011;47574;52.090;5.244;2023-06-19T10:29:37;21.2;;;18.8;;
61675;SDS011;47574;52.090;5.244;2023-06-19T10:31:14;19.8;;;17.7;;
61675;SDS011;47574;52.090;5.244;2023-06-19T10:32:50;20.3;;;18.2;;
61675;SDS011;47574;52.090;5.244;2023-06-19T10:36:17;22.9;;;17.8;;
61675;SDS011;47574;52.090;5.244;2023-06-19T10:37:55;19.5;;;16.4;;
61675;SDS011;47574;52.090;5.244;2023-06-19T10:39:31;20.0;;;16.7;;
61675;SDS011;47574;52.090;5.244;2023-06-19T10:41:13;20.7;;;17.5;;
61675;SDS011;47574;52.090;5.244;2023-06-19T10:44:26;18.0;;;15.7;;
61675;SDS011;47574;52.090;5.244;2023-06-19T10:46:03;19.61;;;16.11;;
61675;SDS011;47574;52.090;5.244;2023-06-19T10:47:39;17.8;;;15.9;;
61675;SDS011;47574;52.090;5.244;2023-06-19T10:49:16;20.11;;;16.0;;
61675;SDS011;47574;52.090;5.244;2023-06-19T10:52:31;18.3;;;15.1;;
61675;SDS011;47574;52.090;5.244;2023-06-19T10:54:08;17.8;;;15.1;;
61675;SDS011;47574;52.090;5.244;2023-06-19T10:55:45;17.8;;;14.4;;
61675;SDS011;47574;52.090;5.244;2023-06-19T10:59:04;17.61;;;14.1;;
61675;SDS011;47574;52.090;5.244;2023-06-19T11:00:42;20.5;;;15.9;;
61675;SDS011;47574;52.090;5.244;2023-06-19T11:02:18;20.5;;;15.9;;
61675;SDS011;47574;52.090;5.244;2023-06-19T11:03:54;19.2;;;15.8;;
61675;SDS011;47574;52.090;5.244;2023-06-19T11:07:07;16.5;;;14.8;;
61675;SDS011;47574;52.090;5.244;2023-06-19T11:08:50;15.0;;;13.1;;
61675;SDS011;47574;52.090;5.244;2023-06-19T11:10:27;16.4;;;14.3;;
61675;SDS011;47574;52.090;5.244;2023-06-19T11:13:42;19.2;;;15.5;;
61675;SDS011;47574;52.090;5.244;2023-06-19T11:15:18;15.3;;;13.4;;
61675;SDS011;47574;52.090;5.244;2023-06-19T11:16:55;18.8;;;14.3;;
61675;SDS011;47574;52.090;5.244;2023-06-19T11:18:31;17.3;;;14.9;;
61675;SDS011;47574;52.090;5.244;2023-06-19T11:21:47;18.91;;;14.7;;
61675;SDS011;47574;52.090;5.244;2023-06-19T11:23:25;16.2;;;13.0;;
61675;SDS011;47574;52.090;5.244;2023-06-19T11:25:05;16.2;;;13.0;;
61675;SDS011;47574;52.090;5.244;2023-06-19T11:28:21;13.4;;;12.0;;
61675;SDS011;47574;52.090;5.244;2023-06-19T11:29:57;14.6;;;12.5;;
61675;SDS011;47574;52.090;5.244;2023-06-19T11:31:34;15.4;;;12.7;;
61675;SDS011;47574;52.090;5.244;2023-06-19T11:33:17;15.3;;;13.2;;
61675;SDS011;47574;52.090;5.244;2023-06-19T11:36:31;15.3;;;13.4;;
61675;SDS011;47574;52.090;5.244;2023-06-19T11:38:07;15.8;;;13.0;;
61675;SDS011;47574;52.090;5.244;2023-06-19T11:39:44;14.1;;;12.8;;
61675;SDS011;47574;52.090;5.244;2023-06-19T11:43:02;16.3;;;14.1;;
61675;SDS011;47574;52.090;5.244;2023-06-19T11:44:51;17.61;;;14.6;;
61675;SDS011;47574;52.090;5.244;2023-06-19T11:46:28;14.9;;;13.4;;
61675;SDS011;47574;52.090;5.244;2023-06-19T11:48:06;13.1;;;11.8;;
61675;SDS011;47574;52.090;5.244;2023-06-19T11:51:18;15.3;;;12.6;;
61675;SDS011;47574;52.090;5.244;2023-06-19T11:52:54;14.8;;;12.8;;
61675;SDS011;47574;52.090;5.244;2023-06-19T11:54:30;16.5;;;12.9;;
61675;SDS011;47574;52.090;5.244;2023-06-19T11:57:42;14.1;;;12.6;;
61675;SDS011;47574;52.090;5.244;2023-06-19T11:59:19;16.11;;;13.1;;
61675;SDS011;47574;52.090;5.244;2023-06-19T12:00:55;13.3;;;11.9;;
61675;SDS011;47574;52.090;5.244;2023-06-19T12:02:31;13.7;;;12.3;;
61675;SDS011;47574;52.090;5.244;2023-06-19T12:05:43;12.9;;;11.4;;
61675;SDS011;47574;52.090;5.244;2023-06-19T12:07:19;13.6;;;10.9;;
61675;SDS011;47574;52.090;5.244;2023-06-19T12:08:56;11.8;;;10.5;;
61675;SDS011;47574;52.090;5.244;2023-06-19T12:12:09;12.2;;;10.9;;
61675;SDS011;47574;52.090;5.244;2023-06-19T12:13:46;11.5;;;10.3;;
61675;SDS011;47574;52.090;5.244;2023-06-19T12:15:22;14.4;;;11.1;;
61675;SDS011;47574;52.090;5.244;2023-06-19T12:18:37;11.5;;;10.3;;
61675;SDS011;47574;52.090;5.244;2023-06-19T12:20:14;11.5;;;10.3;;
61675;SDS011;47574;52.090;5.244;2023-06-19T12:21:50;12.7;;;11.4;;
61675;SDS011;47574;52.090;5.244;2023-06-19T12:23:27;14.0;;;12.0;;
61675;SDS011;47574;52.090;5.244;2023-06-19T12:26:39;13.6;;;12.3;;
61675;SDS011;47574;52.090;5.244;2023-06-19T12:28:15;12.0;;;10.3;;
61675;SDS011;47574;52.090;5.244;2023-06-19T12:29:52;14.7;;;11.1;;
61675;SDS011;47574;52.090;5.244;2023-06-19T12:33:04;13.6;;;11.3;;
61675;SDS011;47574;52.090;5.244;2023-06-19T12:34:40;12.1;;;10.9;;
61675;SDS011;47574;52.090;5.244;2023-06-19T12:36:16;12.5;;;11.2;;
61675;SDS011;47574;52.090;5.244;2023-06-19T12:39:29;12.1;;;10.7;;
61675;SDS011;47574;52.090;5.244;2023-06-19T12:41:05;12.0;;;10.4;;
61675;SDS011;47574;52.090;5.244;2023-06-19T12:42:41;14.5;;;10.0;;
61675;SDS011;47574;52.090;5.244;2023-06-19T12:44:17;11.0;;;9.81;;
61675;SDS011;47574;52.090;5.244;2023-06-19T12:47:29;10.21;;;9.21;;